sensor_id;sensor_type;location;lat;lon;timestamp;P1;durP1;ratioP1;P2;durP2;ratioP2
29916;SDS011;16786;49.466;11.068;2023-02-26T00:01:38;6.55;;;2.90;;
29916;SDS011;16786;49.466;11.068;2023-02-26T00:04:06;9.18;;;3.03;;
29916;SDS011;16786;49.466;11.068;2023-02-26T00:06:36;5.55;;;2.70;;
29916;SDS011;16786;49.466;11.068;2023-02-26T00:09:04;6.80;;;3.00;;
29916;SDS011;16786;49.466;11.068;2023-02-26T00:11:32;6.70;;;2.63;;
29916;SDS011;16786;49.466;11.068;2023-02-26T00:14:00;10.07;;;3.25;;
29916;SDS011;16786;49.466;11.068;2023-02-26T00:16:29;6.80;;;3.47;;
29916;SDS011;16786;49.466;11.068;2023-02-26T00:19:00;6.60;;;3.10;;
29916;SDS011;16786;49.466;11.068;2023-02-26T00:21:30;5.57;;;3.07;;
29916;SDS011;16786;49.466;11.068;2023-02-26T00:23:58;6.95;;;3.17;;
29916;SDS011;16786;49.466;11.068;2023-02-26T00:26:28;9.00;;;3.05;;
29916;SDS011;16786;49.466;11.068;2023-02-26T00:28:58;7.22;;;3.42;;
29916;SDS011;16786;49.466;11.068;2023-02-26T00:31:26;8.98;;;4.15;;
29916;SDS011;16786;49.466;11.068;2023-02-26T00:33:54;5.93;;;3.00;;
29916;SDS011;16786;49.466;11.068;2023-02-26T00:41:52;6.05;;;3.60;;
29916;SDS011;16786;49.466;11.068;2023-02-26T00:44:20;6.18;;;2.92;;
29916;SDS011;16786;49.466;11.068;2023-02-26T00:49:29;10.18;;;3.30;;
29916;SDS011;16786;49.466;11.068;2023-02-26T00:52:13;8.00;;;3.80;;
29916;SDS011;16786;49.466;11.068;2023-02-26T00:54:56;10.85;;;3.70;;
29916;SDS011;16786;49.466;11.068;2023-02-26T00:57:23;6.38;;;3.60;;
29916;SDS011;16786;49.466;11.068;2023-02-26T00:59:51;10.05;;;4.95;;
29916;SDS011;16786;49.466;11.068;2023-02-26T01:02:20;7.70;;;3.60;;
29916;SDS011;16786;49.466;11.068;2023-02-26T01:04:49;5.63;;;3.35;;
29916;SDS011;16786;49.466;11.068;2023-02-26T01:07:20;6.07;;;3.33;;
29916;SDS011;16786;49.466;11.068;2023-02-26T01:09:54;6.30;;;3.38;;
29916;SDS011;16786;49.466;11.068;2023-02-26T01:12:22;8.50;;;3.38;;
29916;SDS011;16786;49.466;11.068;2023-02-26T01:14:53;5.90;;;2.88;;
29916;SDS011;16786;49.466;11.068;2023-02-26T01:19:57;8.20;;;3.80;;
29916;SDS011;16786;49.466;11.068;2023-02-26T01:25:26;10.25;;;3.50;;
29916;SDS011;16786;49.466;11.068;2023-02-26T01:27:58;5.10;;;3.42;;
29916;SDS011;16786;49.466;11.068;2023-02-26T01:30:26;7.00;;;3.42;;
29916;SDS011;16786;49.466;11.068;2023-02-26T01:43:33;9.05;;;3.83;;
29916;SDS011;16786;49.466;11.068;2023-02-26T01:46:13;6.53;;;3.55;;
29916;SDS011;16786;49.466;11.068;2023-02-26T01:49:03;7.25;;;3.42;;
29916;SDS011;16786;49.466;11.068;2023-02-26T01:51:42;5.15;;;3.05;;
29916;SDS011;16786;49.466;11.068;2023-02-26T01:54:10;6.40;;;3.15;;
29916;SDS011;16786;49.466;11.068;2023-02-26T01:56:39;5.57;;;3.10;;
29916;SDS011;16786;49.466;11.068;2023-02-26T01:59:09;8.43;;;2.80;;
29916;SDS011;16786;49.466;11.068;2023-02-26T02:01:40;7.32;;;3.42;;
29916;SDS011;16786;49.466;11.068;2023-02-26T02:04:12;5.88;;;2.97;;
29916;SDS011;16786;49.466;11.068;2023-02-26T02:06:42;8.48;;;3.30;;
29916;SDS011;16786;49.466;11.068;2023-02-26T02:09:11;5.93;;;3.03;;
29916;SDS011;16786;49.466;11.068;2023-02-26T02:11:44;7.72;;;3.17;;
29916;SDS011;16786;49.466;11.068;2023-02-26T02:14:44;9.55;;;4.13;;
29916;SDS011;16786;49.466;11.068;2023-02-26T02:19:58;6.28;;;3.42;;
29916;SDS011;16786;49.466;11.068;2023-02-26T02:25:39;8.15;;;3.90;;
29916;SDS011;16786;49.466;11.068;2023-02-26T02:31:54;6.38;;;3.60;;
29916;SDS011;16786;49.466;11.068;2023-02-26T02:34:02;8.65;;;3.90;;
29916;SDS011;16786;49.466;11.068;2023-02-26T02:40:03;11.38;;;3.85;;
29916;SDS011;16786;49.466;11.068;2023-02-26T02:42:18;11.93;;;3.00;;
29916;SDS011;16786;49.466;11.068;2023-02-26T02:45:17;7.53;;;3.72;;
29916;SDS011;16786;49.466;11.068;2023-02-26T02:47:53;5.72;;;2.80;;
29916;SDS011;16786;49.466;11.068;2023-02-26T02:50:29;8.02;;;2.80;;
29916;SDS011;16786;49.466;11.068;2023-02-26T02:55:41;7.00;;;2.83;;
29916;SDS011;16786;49.466;11.068;2023-02-26T02:58:16;4.75;;;2.70;;
29916;SDS011;16786;49.466;11.068;2023-02-26T03:00:49;8.77;;;2.70;;
29916;SDS011;16786;49.466;11.068;2023-02-26T03:03:27;6.82;;;2.85;;
29916;SDS011;16786;49.466;11.068;2023-02-26T03:06:14;6.35;;;2.90;;
29916;SDS011;16786;49.466;11.068;2023-02-26T03:08:43;4.65;;;2.60;;
29916;SDS011;16786;49.466;11.068;2023-02-26T03:11:14;6.22;;;2.60;;
29916;SDS011;16786;49.466;11.068;2023-02-26T03:13:43;7.45;;;2.70;;
29916;SDS011;16786;49.466;11.068;2023-02-26T03:16:39;5.55;;;2.75;;
29916;SDS011;16786;49.466;11.068;2023-02-26T03:22:11;8.05;;;2.60;;
29916;SDS011;16786;49.466;11.068;2023-02-26T03:33:24;10.88;;;5.28;;
29916;SDS011;16786;49.466;11.068;2023-02-26T03:38:50;6.43;;;2.40;;
29916;SDS011;16786;49.466;11.068;2023-02-26T03:41:26;3.75;;;2.45;;
29916;SDS011;16786;49.466;11.068;2023-02-26T03:44:27;7.35;;;2.70;;
29916;SDS011;16786;49.466;11.068;2023-02-26T03:47:10;4.80;;;2.77;;
29916;SDS011;16786;49.466;11.068;2023-02-26T03:49:43;5.72;;;2.80;;
29916;SDS011;16786;49.466;11.068;2023-02-26T03:52:15;4.90;;;3.00;;
29916;SDS011;16786;49.466;11.068;2023-02-26T03:55:24;4.00;;;2.53;;
29916;SDS011;16786;49.466;11.068;2023-02-26T03:58:21;7.80;;;2.72;;
29916;SDS011;16786;49.466;11.068;2023-02-26T04:01:04;7.20;;;2.67;;
29916;SDS011;16786;49.466;11.068;2023-02-26T04:03:45;7.60;;;2.70;;
29916;SDS011;16786;49.466;11.068;2023-02-26T04:06:16;7.10;;;3.13;;
29916;SDS011;16786;49.466;11.068;2023-02-26T04:08:46;6.28;;;3.47;;
29916;SDS011;16786;49.466;11.068;2023-02-26T04:11:14;8.18;;;3.15;;
29916;SDS011;16786;49.466;11.068;2023-02-26T04:13:45;4.90;;;2.58;;
29916;SDS011;16786;49.466;11.068;2023-02-26T04:16:12;6.95;;;2.92;;
29916;SDS011;16786;49.466;11.068;2023-02-26T04:18:41;5.43;;;2.53;;
29916;SDS011;16786;49.466;11.068;2023-02-26T04:21:12;7.60;;;2.38;;
29916;SDS011;16786;49.466;11.068;2023-02-26T04:23:41;7.50;;;2.78;;
29916;SDS011;16786;49.466;11.068;2023-02-26T04:26:09;6.43;;;2.35;;
29916;SDS011;16786;49.466;11.068;2023-02-26T04:28:38;8.20;;;2.90;;
29916;SDS011;16786;49.466;11.068;2023-02-26T04:31:07;7.65;;;2.60;;
29916;SDS011;16786;49.466;11.068;2023-02-26T04:33:37;5.43;;;2.60;;
29916;SDS011;16786;49.466;11.068;2023-02-26T04:36:04;7.88;;;2.80;;
29916;SDS011;16786;49.466;11.068;2023-02-26T04:38:32;4.68;;;2.70;;
29916;SDS011;16786;49.466;11.068;2023-02-26T04:41:00;7.68;;;2.40;;
29916;SDS011;16786;49.466;11.068;2023-02-26T04:43:27;4.90;;;2.20;;
29916;SDS011;16786;49.466;11.068;2023-02-26T04:46:16;6.13;;;2.40;;
29916;SDS011;16786;49.466;11.068;2023-02-26T04:48:44;3.70;;;2.22;;
29916;SDS011;16786;49.466;11.068;2023-02-26T04:51:11;4.80;;;2.50;;
29916;SDS011;16786;49.466;11.068;2023-02-26T04:53:38;5.32;;;2.38;;
29916;SDS011;16786;49.466;11.068;2023-02-26T04:56:06;5.20;;;2.40;;
29916;SDS011;16786;49.466;11.068;2023-02-26T04:58:33;4.15;;;2.47;;
29916;SDS011;16786;49.466;11.068;2023-02-26T05:01:06;5.55;;;2.42;;
29916;SDS011;16786;49.466;11.068;2023-02-26T05:03:33;6.15;;;2.28;;
29916;SDS011;16786;49.466;11.068;2023-02-26T05:06:01;5.15;;;2.45;;
29916;SDS011;16786;49.466;11.068;2023-02-26T05:08:28;3.45;;;2.20;;
29916;SDS011;16786;49.466;11.068;2023-02-26T05:10:55;10.50;;;3.03;;
29916;SDS011;16786;49.466;11.068;2023-02-26T05:13:23;6.68;;;2.60;;
29916;SDS011;16786;49.466;11.068;2023-02-26T05:15:51;5.50;;;2.28;;
29916;SDS011;16786;49.466;11.068;2023-02-26T05:18:21;4.90;;;2.27;;
29916;SDS011;16786;49.466;11.068;2023-02-26T05:20:52;9.70;;;2.33;;
29916;SDS011;16786;49.466;11.068;2023-02-26T05:23:20;4.32;;;2.22;;
29916;SDS011;16786;49.466;11.068;2023-02-26T05:25:48;5.72;;;2.80;;
29916;SDS011;16786;49.466;11.068;2023-02-26T05:28:16;4.90;;;2.30;;
29916;SDS011;16786;49.466;11.068;2023-02-26T05:30:44;4.10;;;2.30;;
29916;SDS011;16786;49.466;11.068;2023-02-26T05:33:11;6.47;;;2.45;;
29916;SDS011;16786;49.466;11.068;2023-02-26T05:35:38;8.02;;;2.95;;
29916;SDS011;16786;49.466;11.068;2023-02-26T05:38:05;4.53;;;2.38;;
29916;SDS011;16786;49.466;11.068;2023-02-26T05:40:33;4.43;;;2.15;;
29916;SDS011;16786;49.466;11.068;2023-02-26T05:43:00;5.18;;;2.60;;
29916;SDS011;16786;49.466;11.068;2023-02-26T05:45:28;6.93;;;2.60;;
29916;SDS011;16786;49.466;11.068;2023-02-26T05:47:55;5.28;;;2.53;;
29916;SDS011;16786;49.466;11.068;2023-02-26T05:50:22;5.82;;;2.60;;
29916;SDS011;16786;49.466;11.068;2023-02-26T05:52:50;5.78;;;2.30;;
29916;SDS011;16786;49.466;11.068;2023-02-26T05:55:17;5.45;;;2.33;;
29916;SDS011;16786;49.466;11.068;2023-02-26T05:57:44;5.22;;;2.47;;
29916;SDS011;16786;49.466;11.068;2023-02-26T06:00:12;4.13;;;2.47;;
29916;SDS011;16786;49.466;11.068;2023-02-26T06:02:40;5.13;;;2.88;;
29916;SDS011;16786;49.466;11.068;2023-02-26T06:05:08;5.10;;;2.28;;
29916;SDS011;16786;49.466;11.068;2023-02-26T06:07:35;6.78;;;2.20;;
29916;SDS011;16786;49.466;11.068;2023-02-26T06:10:02;4.22;;;2.10;;
29916;SDS011;16786;49.466;11.068;2023-02-26T06:12:30;6.60;;;2.20;;
29916;SDS011;16786;49.466;11.068;2023-02-26T06:14:57;7.15;;;2.85;;
29916;SDS011;16786;49.466;11.068;2023-02-26T06:17:25;6.00;;;2.50;;
29916;SDS011;16786;49.466;11.068;2023-02-26T06:19:52;6.43;;;2.45;;
29916;SDS011;16786;49.466;11.068;2023-02-26T06:22:19;3.53;;;2.00;;
29916;SDS011;16786;49.466;11.068;2023-02-26T06:24:47;7.10;;;2.15;;
29916;SDS011;16786;49.466;11.068;2023-02-26T06:27:14;5.60;;;2.50;;
29916;SDS011;16786;49.466;11.068;2023-02-26T06:29:42;6.53;;;2.58;;
29916;SDS011;16786;49.466;11.068;2023-02-26T06:32:09;5.88;;;2.33;;
29916;SDS011;16786;49.466;11.068;2023-02-26T06:34:36;6.30;;;2.42;;
29916;SDS011;16786;49.466;11.068;2023-02-26T06:37:03;8.13;;;2.22;;
29916;SDS011;16786;49.466;11.068;2023-02-26T06:39:31;5.45;;;2.53;;
29916;SDS011;16786;49.466;11.068;2023-02-26T06:41:58;6.45;;;2.80;;
29916;SDS011;16786;49.466;11.068;2023-02-26T06:44:26;5.80;;;2.40;;
29916;SDS011;16786;49.466;11.068;2023-02-26T06:46:53;6.88;;;2.75;;
29916;SDS011;16786;49.466;11.068;2023-02-26T06:49:20;6.68;;;2.70;;
29916;SDS011;16786;49.466;11.068;2023-02-26T06:51:48;6.45;;;2.80;;
29916;SDS011;16786;49.466;11.068;2023-02-26T06:54:15;4.07;;;2.55;;
29916;SDS011;16786;49.466;11.068;2023-02-26T06:56:42;8.73;;;2.53;;
29916;SDS011;16786;49.466;11.068;2023-02-26T06:59:10;7.85;;;2.78;;
29916;SDS011;16786;49.466;11.068;2023-02-26T07:01:37;5.50;;;2.40;;
29916;SDS011;16786;49.466;11.068;2023-02-26T07:04:05;4.30;;;2.47;;
29916;SDS011;16786;49.466;11.068;2023-02-26T07:06:32;5.78;;;2.60;;
29916;SDS011;16786;49.466;11.068;2023-02-26T07:09:00;4.60;;;2.13;;
29916;SDS011;16786;49.466;11.068;2023-02-26T07:11:27;6.57;;;2.40;;
29916;SDS011;16786;49.466;11.068;2023-02-26T07:13:54;4.40;;;2.60;;
29916;SDS011;16786;49.466;11.068;2023-02-26T07:16:22;5.53;;;2.35;;
29916;SDS011;16786;49.466;11.068;2023-02-26T07:18:50;4.10;;;2.28;;
29916;SDS011;16786;49.466;11.068;2023-02-26T07:21:17;6.20;;;2.45;;
29916;SDS011;16786;49.466;11.068;2023-02-26T07:23:44;6.60;;;2.72;;
29916;SDS011;16786;49.466;11.068;2023-02-26T07:26:11;9.05;;;2.60;;
29916;SDS011;16786;49.466;11.068;2023-02-26T07:28:39;5.25;;;2.53;;
29916;SDS011;16786;49.466;11.068;2023-02-26T07:31:06;7.82;;;2.55;;
29916;SDS011;16786;49.466;11.068;2023-02-26T07:33:34;5.85;;;2.63;;
29916;SDS011;16786;49.466;11.068;2023-02-26T07:36:01;5.28;;;2.40;;
29916;SDS011;16786;49.466;11.068;2023-02-26T07:38:28;4.85;;;2.33;;
29916;SDS011;16786;49.466;11.068;2023-02-26T07:40:56;5.82;;;3.00;;
29916;SDS011;16786;49.466;11.068;2023-02-26T07:43:23;8.23;;;2.53;;
29916;SDS011;16786;49.466;11.068;2023-02-26T07:45:51;4.47;;;2.35;;
29916;SDS011;16786;49.466;11.068;2023-02-26T07:48:19;5.22;;;2.40;;
29916;SDS011;16786;49.466;11.068;2023-02-26T07:50:49;5.32;;;2.33;;
29916;SDS011;16786;49.466;11.068;2023-02-26T07:53:18;5.13;;;2.50;;
29916;SDS011;16786;49.466;11.068;2023-02-26T07:55:46;4.00;;;2.53;;
29916;SDS011;16786;49.466;11.068;2023-02-26T07:58:13;6.07;;;2.95;;
29916;SDS011;16786;49.466;11.068;2023-02-26T08:00:40;4.50;;;2.55;;
29916;SDS011;16786;49.466;11.068;2023-02-26T08:03:08;4.85;;;2.58;;
29916;SDS011;16786;49.466;11.068;2023-02-26T08:05:35;5.57;;;2.58;;
29916;SDS011;16786;49.466;11.068;2023-02-26T08:08:03;4.65;;;2.42;;
29916;SDS011;16786;49.466;11.068;2023-02-26T08:10:30;6.28;;;2.90;;
29916;SDS011;16786;49.466;11.068;2023-02-26T08:12:57;6.75;;;3.00;;
29916;SDS011;16786;49.466;11.068;2023-02-26T08:15:24;4.75;;;2.80;;
29916;SDS011;16786;49.466;11.068;2023-02-26T08:17:52;6.75;;;2.72;;
29916;SDS011;16786;49.466;11.068;2023-02-26T08:20:23;6.13;;;2.90;;
29916;SDS011;16786;49.466;11.068;2023-02-26T08:22:50;5.43;;;3.10;;
29916;SDS011;16786;49.466;11.068;2023-02-26T08:25:18;6.45;;;2.75;;
29916;SDS011;16786;49.466;11.068;2023-02-26T08:27:45;7.55;;;2.90;;
29916;SDS011;16786;49.466;11.068;2023-02-26T08:30:13;5.57;;;2.97;;
29916;SDS011;16786;49.466;11.068;2023-02-26T08:32:41;7.68;;;2.90;;
29916;SDS011;16786;49.466;11.068;2023-02-26T08:35:09;5.25;;;2.80;;
29916;SDS011;16786;49.466;11.068;2023-02-26T08:37:37;6.20;;;3.03;;
29916;SDS011;16786;49.466;11.068;2023-02-26T08:40:05;4.10;;;2.45;;
29916;SDS011;16786;49.466;11.068;2023-02-26T08:42:40;4.85;;;2.95;;
29916;SDS011;16786;49.466;11.068;2023-02-26T08:45:07;6.05;;;2.92;;
29916;SDS011;16786;49.466;11.068;2023-02-26T08:47:35;6.45;;;3.03;;
29916;SDS011;16786;49.466;11.068;2023-02-26T08:50:14;7.15;;;3.85;;
29916;SDS011;16786;49.466;11.068;2023-02-26T08:52:41;3.78;;;2.40;;
29916;SDS011;16786;49.466;11.068;2023-02-26T08:55:09;4.35;;;2.30;;
29916;SDS011;16786;49.466;11.068;2023-02-26T08:57:36;3.53;;;2.40;;
29916;SDS011;16786;49.466;11.068;2023-02-26T09:00:04;5.85;;;2.58;;
29916;SDS011;16786;49.466;11.068;2023-02-26T09:02:36;4.35;;;2.78;;
29916;SDS011;16786;49.466;11.068;2023-02-26T09:05:04;5.00;;;2.35;;
29916;SDS011;16786;49.466;11.068;2023-02-26T09:07:31;5.63;;;3.40;;
29916;SDS011;16786;49.466;11.068;2023-02-26T09:09:59;7.07;;;3.60;;
29916;SDS011;16786;49.466;11.068;2023-02-26T09:12:26;13.30;;;5.57;;
29916;SDS011;16786;49.466;11.068;2023-02-26T09:14:53;7.30;;;3.65;;
29916;SDS011;16786;49.466;11.068;2023-02-26T09:17:21;17.75;;;9.38;;
29916;SDS011;16786;49.466;11.068;2023-02-26T09:19:48;14.35;;;7.03;;
29916;SDS011;16786;49.466;11.068;2023-02-26T09:22:15;5.45;;;3.20;;
29916;SDS011;16786;49.466;11.068;2023-02-26T09:24:43;4.90;;;2.38;;
29916;SDS011;16786;49.466;11.068;2023-02-26T09:27:10;3.50;;;2.50;;
29916;SDS011;16786;49.466;11.068;2023-02-26T09:29:37;3.55;;;2.33;;
29916;SDS011;16786;49.466;11.068;2023-02-26T09:32:04;7.50;;;2.30;;
29916;SDS011;16786;49.466;11.068;2023-02-26T09:34:34;6.10;;;2.40;;
29916;SDS011;16786;49.466;11.068;2023-02-26T09:37:02;3.55;;;2.30;;
29916;SDS011;16786;49.466;11.068;2023-02-26T09:39:30;3.17;;;2.10;;
29916;SDS011;16786;49.466;11.068;2023-02-26T09:44:35;4.00;;;2.55;;
29916;SDS011;16786;49.466;11.068;2023-02-26T09:49:52;3.55;;;2.35;;
29916;SDS011;16786;49.466;11.068;2023-02-26T09:52:29;2.95;;;2.17;;
29916;SDS011;16786;49.466;11.068;2023-02-26T09:55:11;3.85;;;2.70;;
29916;SDS011;16786;49.466;11.068;2023-02-26T09:57:44;11.10;;;5.72;;
29916;SDS011;16786;49.466;11.068;2023-02-26T10:08:56;2.78;;;2.30;;
29916;SDS011;16786;49.466;11.068;2023-02-26T10:14:45;3.30;;;2.45;;
29916;SDS011;16786;49.466;11.068;2023-02-26T10:17:41;7.35;;;3.53;;
29916;SDS011;16786;49.466;11.068;2023-02-26T10:26:13;7.20;;;3.20;;
29916;SDS011;16786;49.466;11.068;2023-02-26T10:31:19;6.63;;;2.78;;
29916;SDS011;16786;49.466;11.068;2023-02-26T10:39:46;4.82;;;3.05;;
29916;SDS011;16786;49.466;11.068;2023-02-26T10:42:22;5.63;;;3.10;;
29916;SDS011;16786;49.466;11.068;2023-02-26T10:44:59;4.10;;;2.75;;
29916;SDS011;16786;49.466;11.068;2023-02-26T10:47:48;4.53;;;3.00;;
29916;SDS011;16786;49.466;11.068;2023-02-26T10:50:25;4.28;;;3.08;;
29916;SDS011;16786;49.466;11.068;2023-02-26T10:52:53;13.30;;;5.03;;
29916;SDS011;16786;49.466;11.068;2023-02-26T10:55:37;5.00;;;2.95;;
29916;SDS011;16786;49.466;11.068;2023-02-26T10:58:13;6.22;;;2.50;;
29916;SDS011;16786;49.466;11.068;2023-02-26T11:00:50;6.45;;;4.03;;
29916;SDS011;16786;49.466;11.068;2023-02-26T11:03:38;7.18;;;3.00;;
29916;SDS011;16786;49.466;11.068;2023-02-26T11:06:08;3.63;;;2.65;;
29916;SDS011;16786;49.466;11.068;2023-02-26T11:08:42;3.80;;;2.50;;
29916;SDS011;16786;49.466;11.068;2023-02-26T11:11:11;6.22;;;2.78;;
29916;SDS011;16786;49.466;11.068;2023-02-26T11:14:21;4.18;;;2.80;;
29916;SDS011;16786;49.466;11.068;2023-02-26T11:16:53;5.72;;;2.80;;
29916;SDS011;16786;49.466;11.068;2023-02-26T11:19:27;8.75;;;2.85;;
29916;SDS011;16786;49.466;11.068;2023-02-26T11:21:57;7.40;;;3.10;;
29916;SDS011;16786;49.466;11.068;2023-02-26T11:24:28;3.50;;;2.60;;
29916;SDS011;16786;49.466;11.068;2023-02-26T11:27:03;3.20;;;2.72;;
29916;SDS011;16786;49.466;11.068;2023-02-26T11:29:37;3.63;;;2.50;;
29916;SDS011;16786;49.466;11.068;2023-02-26T11:32:17;3.55;;;2.72;;
29916;SDS011;16786;49.466;11.068;2023-02-26T11:34:47;4.03;;;2.95;;
29916;SDS011;16786;49.466;11.068;2023-02-26T11:37:17;3.75;;;2.88;;
29916;SDS011;16786;49.466;11.068;2023-02-26T11:39:59;5.38;;;3.00;;
29916;SDS011;16786;49.466;11.068;2023-02-26T11:42:37;6.18;;;3.63;;
29916;SDS011;16786;49.466;11.068;2023-02-26T11:45:15;6.70;;;3.03;;
29916;SDS011;16786;49.466;11.068;2023-02-26T11:47:44;4.97;;;3.10;;
29916;SDS011;16786;49.466;11.068;2023-02-26T11:50:14;5.15;;;2.95;;
29916;SDS011;16786;49.466;11.068;2023-02-26T11:52:55;5.30;;;3.10;;
29916;SDS011;16786;49.466;11.068;2023-02-26T11:55:32;3.65;;;2.90;;
29916;SDS011;16786;49.466;11.068;2023-02-26T11:58:03;5.40;;;3.20;;
29916;SDS011;16786;49.466;11.068;2023-02-26T12:00:42;4.75;;;2.90;;
29916;SDS011;16786;49.466;11.068;2023-02-26T12:03:16;3.42;;;2.72;;
29916;SDS011;16786;49.466;11.068;2023-02-26T12:05:54;3.47;;;2.92;;
29916;SDS011;16786;49.466;11.068;2023-02-26T12:08:26;4.38;;;3.25;;
29916;SDS011;16786;49.466;11.068;2023-02-26T12:19:51;4.70;;;3.80;;
29916;SDS011;16786;49.466;11.068;2023-02-26T12:45:03;8.57;;;3.47;;
29916;SDS011;16786;49.466;11.068;2023-02-26T13:07:00;4.93;;;3.70;;
29916;SDS011;16786;49.466;11.068;2023-02-26T13:10:02;5.70;;;3.65;;
29916;SDS011;16786;49.466;11.068;2023-02-26T13:12:49;7.65;;;4.55;;
29916;SDS011;16786;49.466;11.068;2023-02-26T13:18:25;3.65;;;3.15;;
29916;SDS011;16786;49.466;11.068;2023-02-26T13:21:04;3.85;;;3.33;;
29916;SDS011;16786;49.466;11.068;2023-02-26T13:23:43;4.45;;;3.40;;
29916;SDS011;16786;49.466;11.068;2023-02-26T13:26:13;6.55;;;4.85;;
29916;SDS011;16786;49.466;11.068;2023-02-26T13:28:43;8.20;;;6.03;;
29916;SDS011;16786;49.466;11.068;2023-02-26T13:34:36;5.85;;;4.18;;
29916;SDS011;16786;49.466;11.068;2023-02-26T13:48:03;5.05;;;3.92;;
29916;SDS011;16786;49.466;11.068;2023-02-26T13:50:40;4.45;;;3.88;;
29916;SDS011;16786;49.466;11.068;2023-02-26T13:55:50;4.15;;;3.70;;
29916;SDS011;16786;49.466;11.068;2023-02-26T14:00:59;4.25;;;3.85;;
29916;SDS011;16786;49.466;11.068;2023-02-26T14:03:35;4.20;;;3.80;;
29916;SDS011;16786;49.466;11.068;2023-02-26T14:18:04;5.85;;;4.70;;
29916;SDS011;16786;49.466;11.068;2023-02-26T14:20:44;5.15;;;4.07;;
29916;SDS011;16786;49.466;11.068;2023-02-26T14:23:15;5.60;;;4.22;;
29916;SDS011;16786;49.466;11.068;2023-02-26T14:26:02;4.15;;;3.70;;
29916;SDS011;16786;49.466;11.068;2023-02-26T14:28:33;5.72;;;3.80;;
29916;SDS011;16786;49.466;11.068;2023-02-26T14:31:12;5.78;;;4.78;;
29916;SDS011;16786;49.466;11.068;2023-02-26T14:33:44;4.30;;;3.90;;
29916;SDS011;16786;49.466;11.068;2023-02-26T14:39:09;4.90;;;4.40;;
29916;SDS011;16786;49.466;11.068;2023-02-26T14:42:04;6.60;;;4.78;;
29916;SDS011;16786;49.466;11.068;2023-02-26T14:44:44;4.95;;;4.20;;
29916;SDS011;16786;49.466;11.068;2023-02-26T14:47:14;5.80;;;4.85;;
29916;SDS011;16786;49.466;11.068;2023-02-26T14:49:44;5.35;;;4.18;;
29916;SDS011;16786;49.466;11.068;2023-02-26T15:25:04;5.90;;;4.15;;
29916;SDS011;16786;49.466;11.068;2023-02-26T15:27:36;5.40;;;4.40;;
29916;SDS011;16786;49.466;11.068;2023-02-26T15:30:04;5.47;;;4.20;;
29916;SDS011;16786;49.466;11.068;2023-02-26T15:32:35;4.90;;;3.72;;
29916;SDS011;16786;49.466;11.068;2023-02-26T15:35:09;4.50;;;3.80;;
29916;SDS011;16786;49.466;11.068;2023-02-26T15:37:51;5.13;;;4.00;;
29916;SDS011;16786;49.466;11.068;2023-02-26T15:40:23;6.10;;;4.05;;
29916;SDS011;16786;49.466;11.068;2023-02-26T15:42:53;4.32;;;3.53;;
29916;SDS011;16786;49.466;11.068;2023-02-26T15:45:24;3.97;;;3.15;;
29916;SDS011;16786;49.466;11.068;2023-02-26T15:47:55;4.50;;;3.90;;
29916;SDS011;16786;49.466;11.068;2023-02-26T15:50:27;6.32;;;4.20;;
29916;SDS011;16786;49.466;11.068;2023-02-26T15:52:58;5.88;;;3.80;;
29916;SDS011;16786;49.466;11.068;2023-02-26T15:55:30;4.03;;;3.28;;
29916;SDS011;16786;49.466;11.068;2023-02-26T15:58:01;5.85;;;4.53;;
29916;SDS011;16786;49.466;11.068;2023-02-26T16:00:33;6.53;;;4.25;;
29916;SDS011;16786;49.466;11.068;2023-02-26T16:03:02;6.28;;;4.10;;
29916;SDS011;16786;49.466;11.068;2023-02-26T16:05:30;5.20;;;4.10;;
29916;SDS011;16786;49.466;11.068;2023-02-26T16:07:57;8.13;;;4.18;;
29916;SDS011;16786;49.466;11.068;2023-02-26T16:10:38;4.10;;;3.70;;
29916;SDS011;16786;49.466;11.068;2023-02-26T16:13:10;4.68;;;4.07;;
29916;SDS011;16786;49.466;11.068;2023-02-26T16:15:42;4.40;;;3.80;;
29916;SDS011;16786;49.466;11.068;2023-02-26T16:18:14;5.03;;;4.10;;
29916;SDS011;16786;49.466;11.068;2023-02-26T16:20:44;5.38;;;3.90;;
29916;SDS011;16786;49.466;11.068;2023-02-26T16:23:16;4.97;;;3.90;;
29916;SDS011;16786;49.466;11.068;2023-02-26T16:25:52;4.43;;;3.70;;
29916;SDS011;16786;49.466;11.068;2023-02-26T16:28:22;6.90;;;3.80;;
29916;SDS011;16786;49.466;11.068;2023-02-26T16:30:59;5.40;;;4.00;;
29916;SDS011;16786;49.466;11.068;2023-02-26T16:33:33;5.53;;;4.10;;
29916;SDS011;16786;49.466;11.068;2023-02-26T16:36:05;5.88;;;4.00;;
29916;SDS011;16786;49.466;11.068;2023-02-26T16:38:43;5.22;;;3.95;;
29916;SDS011;16786;49.466;11.068;2023-02-26T16:41:15;4.97;;;3.90;;
29916;SDS011;16786;49.466;11.068;2023-02-26T16:43:52;5.05;;;4.10;;
29916;SDS011;16786;49.466;11.068;2023-02-26T16:46:27;4.60;;;3.85;;
29916;SDS011;16786;49.466;11.068;2023-02-26T16:48:57;6.00;;;3.90;;
29916;SDS011;16786;49.466;11.068;2023-02-26T16:51:36;4.80;;;3.70;;
29916;SDS011;16786;49.466;11.068;2023-02-26T16:54:07;5.88;;;3.45;;
29916;SDS011;16786;49.466;11.068;2023-02-26T16:56:56;5.78;;;3.90;;
29916;SDS011;16786;49.466;11.068;2023-02-26T16:59:37;7.03;;;4.40;;
29916;SDS011;16786;49.466;11.068;2023-02-26T17:04:41;7.65;;;4.13;;
29916;SDS011;16786;49.466;11.068;2023-02-26T17:07:16;6.75;;;4.20;;
29916;SDS011;16786;49.466;11.068;2023-02-26T17:09:55;12.02;;;6.28;;
29916;SDS011;16786;49.466;11.068;2023-02-26T17:12:29;7.93;;;4.63;;
29916;SDS011;16786;49.466;11.068;2023-02-26T17:15:35;4.60;;;3.90;;
29916;SDS011;16786;49.466;11.068;2023-02-26T17:18:02;5.10;;;3.70;;
29916;SDS011;16786;49.466;11.068;2023-02-26T17:20:30;5.82;;;4.15;;
29916;SDS011;16786;49.466;11.068;2023-02-26T17:23:07;5.10;;;4.20;;
29916;SDS011;16786;49.466;11.068;2023-02-26T17:25:36;9.43;;;5.28;;
29916;SDS011;16786;49.466;11.068;2023-02-26T17:28:05;6.28;;;3.92;;
29916;SDS011;16786;49.466;11.068;2023-02-26T17:30:33;4.60;;;3.88;;
29916;SDS011;16786;49.466;11.068;2023-02-26T17:33:01;6.55;;;4.65;;
29916;SDS011;16786;49.466;11.068;2023-02-26T17:35:33;17.23;;;8.88;;
29916;SDS011;16786;49.466;11.068;2023-02-26T17:38:00;12.65;;;6.68;;
29916;SDS011;16786;49.466;11.068;2023-02-26T17:40:31;5.50;;;4.43;;
29916;SDS011;16786;49.466;11.068;2023-02-26T17:43:02;6.68;;;4.32;;
29916;SDS011;16786;49.466;11.068;2023-02-26T17:45:30;9.75;;;5.53;;
29916;SDS011;16786;49.466;11.068;2023-02-26T17:47:59;6.97;;;4.90;;
29916;SDS011;16786;49.466;11.068;2023-02-26T17:53:09;8.32;;;4.82;;
29916;SDS011;16786;49.466;11.068;2023-02-26T17:55:36;5.25;;;3.97;;
29916;SDS011;16786;49.466;11.068;2023-02-26T17:58:06;5.50;;;4.38;;
29916;SDS011;16786;49.466;11.068;2023-02-26T18:00:38;7.43;;;4.68;;
29916;SDS011;16786;49.466;11.068;2023-02-26T18:03:08;8.23;;;5.30;;
29916;SDS011;16786;49.466;11.068;2023-02-26T18:05:36;11.95;;;6.03;;
29916;SDS011;16786;49.466;11.068;2023-02-26T18:08:06;9.63;;;5.88;;
29916;SDS011;16786;49.466;11.068;2023-02-26T18:10:42;7.55;;;4.97;;
29916;SDS011;16786;49.466;11.068;2023-02-26T18:13:09;7.47;;;4.80;;
29916;SDS011;16786;49.466;11.068;2023-02-26T18:15:37;10.25;;;6.18;;
29916;SDS011;16786;49.466;11.068;2023-02-26T18:18:04;6.25;;;4.30;;
29916;SDS011;16786;49.466;11.068;2023-02-26T18:20:32;9.27;;;4.88;;
29916;SDS011;16786;49.466;11.068;2023-02-26T18:22:59;7.03;;;4.97;;
29916;SDS011;16786;49.466;11.068;2023-02-26T18:25:27;7.65;;;4.60;;
29916;SDS011;16786;49.466;11.068;2023-02-26T18:27:54;7.15;;;4.88;;
29916;SDS011;16786;49.466;11.068;2023-02-26T18:30:27;6.25;;;4.30;;
29916;SDS011;16786;49.466;11.068;2023-02-26T18:32:56;8.43;;;5.07;;